Time;durP1;ratioP1;P1;durP2;ratioP2;P2;SDS_P1;SDS_P2;PMS_P1;PMS_P2;Temp;Humidity;BMP_temperature;BMP_pressure;BME280_temperature;BME280_humidity;BME280_pressure;Samples;Min_cycle;Max_cycle;Signal;HPM_P1;HPM_P2
2022/02/16 00:00:51;;;;;;;51.90;27.65;;;;;;;1.39;100.00;99344.41;5117604;28;20088;-76
2022/02/16 00:03:36;;;;;;;51.25;28.55;;;;;;;1.26;100.00;99333.19;5117457;28;20040;-76
2022/02/16 00:06:20;;;;;;;63.85;29.52;;;;;;;1.03;100.00;99316.72;5117974;28;20434;-76
2022/02/16 00:09:05;;;;;;;63.33;31.25;;;;;;;1.08;100.00;99317.63;5117482;28;20039;-76
2022/02/16 00:11:50;;;;;;;57.78;27.52;;;;;;;1.10;100.00;99321.06;5117449;28;20031;-76
2022/02/16 00:14:34;;;;;;;53.50;26.63;;;;;;;1.04;100.00;99315.84;5117187;28;20430;-76
2022/02/16 00:17:18;;;;;;;56.40;27.77;;;;;;;0.99;100.00;99305.53;5102812;28;20067;-76
2022/02/16 00:20:08;;;;;;;53.33;25.65;;;;;;;0.93;100.00;99306.34;5117933;28;20345;-76
2022/02/16 00:22:52;;;;;;;46.13;23.70;;;;;;;0.88;100.00;99297.75;5117553;28;20047;-76
2022/02/16 00:25:37;;;;;;;59.30;28.33;;;;;;;0.87;100.00;99293.41;5117714;28;20452;-76
2022/02/16 00:28:22;;;;;;;62.58;29.17;;;;;;;0.83;100.00;99296.84;5116982;28;20056;-76
2022/02/16 00:31:06;;;;;;;60.72;29.85;;;;;;;0.82;100.00;99300.28;5117063;28;20438;-76
2022/02/16 00:33:50;;;;;;;59.60;29.88;;;;;;;0.70;100.00;99302.78;5117751;28;20119;-76
2022/02/16 00:36:36;;;;;;;51.42;27.73;;;;;;;0.66;100.00;99303.63;5117550;28;20070;-76
2022/02/16 00:39:21;;;;;;;43.85;24.63;;;;;;;0.58;100.00;99298.38;5117485;28;20040;-76
2022/02/16 00:42:06;;;;;;;43.83;21.55;;;;;;;0.62;100.00;99301.88;5117532;28;20032;-76
2022/02/16 00:44:50;;;;;;;47.05;22.67;;;;;;;0.58;100.00;99300.09;5117407;28;20040;-76
2022/02/16 00:47:35;;;;;;;45.58;22.75;;;;;;;0.58;100.00;99284.66;5116614;28;20044;-76
2022/02/16 00:50:20;;;;;;;45.95;22.77;;;;;;;0.52;100.00;99284.59;5116138;28;20073;-76
2022/02/16 00:53:06;;;;;;;43.30;23.13;;;;;;;0.40;100.00;99272.50;5102388;28;20092;-76
2022/02/16 00:55:52;;;;;;;48.88;23.58;;;;;;;0.43;100.00;99288.84;5116455;28;20451;-76
2022/02/16 00:58:36;;;;;;;40.20;21.58;;;;;;;0.40;100.00;99283.66;5116408;28;20044;-76
2022/02/16 01:01:21;;;;;;;36.60;19.90;;;;;;;0.40;100.00;99293.13;5116308;28;20085;-76
2022/02/16 01:04:06;;;;;;;45.47;24.38;;;;;;;0.42;100.00;99283.66;5116210;28;20395;-76
2022/02/16 01:06:51;;;;;;;46.85;24.23;;;;;;;0.32;100.00;99274.16;5116488;28;20059;-76
2022/02/16 01:09:36;;;;;;;43.30;23.08;;;;;;;0.28;100.00;99264.69;5116212;28;20430;-76
2022/02/16 01:12:20;;;;;;;44.47;23.13;;;;;;;0.32;100.00;99272.44;5116138;28;20047;-76
2022/02/16 01:15:06;;;;;;;41.50;22.20;;;;;;;0.27;100.00;99265.53;5116887;28;20073;-76
2022/02/16 01:17:57;;;;;;;42.90;22.85;;;;;;;0.34;100.00;99269.88;5116162;28;20043;-76
2022/02/16 01:20:47;;;;;;;50.78;26.48;;;;;;;0.36;100.00;99258.75;5102552;28;20119;-76
2022/02/16 01:23:32;;;;;;;43.95;24.52;;;;;;;0.33;100.00;99257.84;5115627;28;20062;-76
2022/02/16 01:26:19;;;;;;;46.35;24.95;;;;;;;0.33;100.00;99258.72;5115981;28;20043;-76
2022/02/16 01:29:12;;;;;;;45.08;23.40;;;;;;;0.25;100.00;99255.19;5102822;28;20043;-76
2022/02/16 01:32:02;;;;;;;39.83;21.48;;;;;;;0.17;100.00;99247.44;5116019;28;20039;-76
2022/02/16 01:34:47;;;;;;;46.97;23.20;;;;;;;0.06;100.00;99236.16;5115814;28;20378;-76
2022/02/16 01:37:32;;;;;;;45.22;24.63;;;;;;;0.02;100.00;99246.44;5115678;28;20429;-76
2022/02/16 01:40:17;;;;;;;47.20;23.60;;;;;;;0.00;100.00;99243.88;5101546;28;20060;-76
2022/02/16 01:43:04;;;;;;;50.13;24.90;;;;;;;0.02;100.00;99249.88;5115572;28;20039;-76
2022/02/16 01:45:59;;;;;;;49.50;24.58;;;;;;;0.02;100.00;99244.72;5115811;28;20088;-75
2022/02/16 01:48:44;;;;;;;41.92;23.05;;;;;;;0.06;100.00;99248.19;5115793;28;20043;-76
2022/02/16 01:51:28;;;;;;;48.15;25.23;;;;;;;-0.05;100.00;99236.09;5115601;28;20038;-76
2022/02/16 01:54:14;;;;;;;48.10;25.35;;;;;;;0.00;100.00;99238.72;5115540;28;20426;-76
2022/02/16 01:56:59;;;;;;;42.85;22.92;;;;;;;0.02;100.00;99239.56;5101292;28;20040;-76
2022/02/16 01:59:53;;;;;;;44.10;23.60;;;;;;;0.05;100.00;99224.16;5115533;28;20040;-76
2022/02/16 02:02:49;;;;;;;43.05;23.35;;;;;;;0.14;100.00;99233.66;5118845;28;20326;-76
2022/02/16 02:05:57;;;;;;;46.08;22.65;;;;;;;0.19;100.00;99219.09;5120546;28;20043;-76
2022/02/16 02:08:41;;;;;;;45.15;22.83;;;;;;;0.11;100.00;99203.59;5119910;28;20039;-76
2022/02/16 02:11:27;;;;;;;40.28;22.25;;;;;;;0.23;100.00;99210.56;5119595;28;20039;-76
2022/02/16 02:14:17;;;;;;;46.70;22.52;;;;;;;0.28;100.00;99208.00;5119607;28;20116;-75
2022/02/16 02:17:24;;;;;;;37.35;21.70;;;;;;;0.36;100.00;99203.78;5119627;28;20044;-77
2022/02/16 02:20:19;;;;;;;41.47;20.63;;;;;;;0.47;100.00;99207.28;5105215;28;20036;-77
2022/02/16 02:23:05;;;;;;;35.47;19.58;;;;;;;0.50;100.00;99204.72;5119254;28;20051;-75
2022/02/16 02:25:54;;;;;;;36.42;19.73;;;;;;;0.62;100.00;99207.38;5119408;28;20040;-76
2022/02/16 02:28:38;;;;;;;37.17;19.27;;;;;;;0.67;100.00;99199.66;5104906;28;20097;-76
2022/02/16 02:31:37;;;;;;;33.38;19.50;;;;;;;0.76;100.00;99204.00;5119319;28;20326;-76
2022/02/16 02:34:21;;;;;;;34.80;19.10;;;;;;;0.85;100.00;99202.31;5119187;28;20039;-76
2022/02/16 02:37:05;;;;;;;38.00;20.30;;;;;;;0.89;100.00;99198.88;5119847;28;20043;-76
2022/02/16 02:39:50;;;;;;;32.80;19.73;;;;;;;0.84;100.00;99163.63;5119164;28;20108;-76
2022/02/16 02:42:39;;;;;;;35.95;20.77;;;;;;;1.00;100.00;99182.59;5119030;28;20056;-75
2022/02/16 02:45:25;;;;;;;33.25;20.42;;;;;;;1.19;100.00;99174.06;5118983;28;20414;-76
2022/02/16 02:48:09;;;;;;;32.30;19.30;;;;;;;1.32;100.00;99175.81;5118958;28;20124;-76
2022/02/16 02:50:54;;;;;;;28.75;16.77;;;;;;;1.35;100.00;99186.13;5119764;28;20039;-75
2022/02/16 02:53:39;;;;;;;30.70;17.48;;;;;;;1.34;100.00;99166.34;5118884;28;20043;-76
2022/02/16 02:56:24;;;;;;;29.08;17.05;;;;;;;1.31;100.00;99166.34;5118825;28;20043;-75
2022/02/16 02:59:09;;;;;;;31.60;18.20;;;;;;;1.33;100.00;99159.47;5118871;28;20456;-76
2022/02/16 03:01:54;;;;;;;32.35;17.63;;;;;;;1.32;100.00;99156.88;5104414;28;20043;-75
2022/02/16 03:04:38;;;;;;;33.83;18.35;;;;;;;1.30;100.00;99141.41;5118575;28;20365;-75
2022/02/16 03:07:23;;;;;;;32.10;18.23;;;;;;;1.28;100.00;99140.53;5104231;28;20039;-76
2022/02/16 03:10:08;;;;;;;33.53;18.42;;;;;;;1.33;100.00;99149.16;5118592;28;20433;-76
2022/02/16 03:12:53;;;;;;;28.65;17.65;;;;;;;1.29;100.00;99136.22;5103994;28;20040;-76
2022/02/16 03:15:38;;;;;;;32.63;18.60;;;;;;;1.34;100.00;99145.72;5118511;28;20043;-76
2022/02/16 03:18:23;;;;;;;27.98;16.17;;;;;;;1.28;100.00;99137.09;5089773;28;20060;-76
2022/02/16 03:21:08;;;;;;;30.83;17.33;;;;;;;1.35;100.00;99146.56;5118401;28;20105;-76
2022/02/16 03:23:52;;;;;;;23.92;15.27;;;;;;;1.29;100.00;99141.41;5118226;28;20035;-76
2022/02/16 03:26:37;;;;;;;26.30;16.30;;;;;;;1.22;100.00;99135.38;5118282;28;20075;-76
2022/02/16 03:29:23;;;;;;;24.95;14.50;;;;;;;1.22;100.00;99144.81;5103999;28;20040;-76
2022/02/16 03:32:15;;;;;;;31.08;17.75;;;;;;;1.17;100.00;99132.78;5118205;28;20445;-75
2022/02/16 03:35:00;;;;;;;29.95;17.88;;;;;;;1.13;100.00;99130.19;5118113;28;20353;-76
2022/02/16 03:37:45;;;;;;;25.70;16.10;;;;;;;1.17;100.00;99134.50;5103981;28;20052;-76
2022/02/16 03:40:32;;;;;;;25.67;14.32;;;;;;;1.22;100.00;99130.19;5118637;28;20072;-76
2022/02/16 03:43:17;;;;;;;25.27;14.55;;;;;;;1.39;100.00;99137.97;5117846;28;20489;-76
2022/02/16 03:46:02;;;;;;;23.30;14.77;;;;;;;1.52;100.00;99141.41;5117851;28;20050;-76
2022/02/16 03:48:50;;;;;;;22.15;14.27;;;;;;;1.65;100.00;99137.97;5118039;28;20111;-76
2022/02/16 03:51:34;;;;;;;24.20;17.05;;;;;;;1.77;100.00;99122.50;5103416;28;20043;-76
2022/02/16 03:54:19;;;;;;;26.27;14.27;;;;;;;1.98;100.00;99134.56;5118381;28;20047;-76
2022/02/16 03:57:05;;;;;;;20.30;14.13;;;;;;;2.11;100.00;99127.63;5103465;28;20395;-76
2022/02/16 03:59:49;;;;;;;21.83;14.18;;;;;;;2.22;100.00;99125.03;5117703;28;20410;-76
2022/02/16 04:03:05;;;;;;;20.50;13.05;;;;;;;2.30;100.00;99118.97;5118309;28;20044;-76
2022/02/16 04:05:49;;;;;;;19.05;12.52;;;;;;;2.36;100.00;99110.34;5117565;28;20043;-77
2022/02/16 04:08:35;;;;;;;24.00;12.20;;;;;;;2.44;100.00;99106.00;5117331;28;20096;-76
2022/02/16 04:11:20;;;;;;;18.65;13.18;;;;;;;2.50;100.00;99107.69;5117364;28;20067;-76
2022/02/16 04:14:05;;;;;;;20.70;13.38;;;;;;;2.57;100.00;99104.25;5118083;28;20050;-76
2022/02/16 04:16:50;;;;;;;21.52;13.52;;;;;;;2.58;100.00;99101.63;5102916;28;20097;-76
2022/02/16 04:19:35;;;;;;;27.73;17.48;;;;;;;2.53;100.00;99103.38;5117148;28;20036;-76
2022/02/16 04:22:19;;;;;;;34.45;19.40;;;;;;;2.56;100.00;99105.94;5116889;28;20582;-76
2022/02/16 04:25:04;;;;;;;38.38;20.55;;;;;;;2.61;100.00;99098.19;5102054;28;20092;-76
2022/02/16 04:27:49;;;;;;;33.65;18.95;;;;;;;2.73;100.00;99099.84;5117103;28;20059;-76
2022/02/16 04:30:34;;;;;;;23.45;13.18;;;;;;;2.62;100.00;99083.53;5117032;28;20043;-76
2022/02/16 04:33:22;;;;;;;19.40;11.65;;;;;;;2.80;100.00;99096.38;5116897;28;20068;-76
2022/02/16 04:36:07;;;;;;;19.35;12.20;;;;;;;2.86;100.00;99090.28;5116931;28;20032;-76
2022/02/16 04:38:57;;;;;;;18.70;11.50;;;;;;;2.82;100.00;99068.75;5102585;28;20342;-76
2022/02/16 04:41:41;;;;;;;22.92;14.50;;;;;;;2.98;100.00;99085.91;5116916;28;20043;-76
2022/02/16 04:44:31;;;;;;;22.25;14.75;;;;;;;2.88;100.00;99073.91;5102853;28;20453;-76
2022/02/16 04:47:25;;;;;;;32.67;16.83;;;;;;;2.86;100.00;99067.00;5116626;28;20426;-76
2022/02/16 04:50:10;;;;;;;36.15;15.35;;;;;;;2.92;100.00;99073.00;5116684;28;20064;-76
2022/02/16 04:52:55;;;;;;;26.73;14.35;;;;;;;3.03;100.00;99067.78;5102216;28;20043;-76
2022/02/16 04:55:52;;;;;;;21.20;13.02;;;;;;;2.95;100.00;99056.63;5116499;28;20066;-76
2022/02/16 04:58:37;;;;;;;17.70;12.15;;;;;;;2.94;100.00;99060.09;5116470;28;20342;-76
2022/02/16 05:01:22;;;;;;;17.17;11.95;;;;;;;2.97;100.00;99068.69;5116364;28;20051;-76
2022/02/16 05:04:10;;;;;;;18.08;11.93;;;;;;;2.94;100.00;99060.94;5102417;28;20039;-76
2022/02/16 05:06:54;;;;;;;18.48;11.30;;;;;;;2.96;100.00;99054.03;5116546;28;20043;-76
2022/02/16 05:09:40;;;;;;;17.67;11.38;;;;;;;2.91;100.00;99063.53;5116247;28;20052;-76
2022/02/16 05:12:27;;;;;;;18.73;11.35;;;;;;;2.86;100.00;99051.50;5102154;28;20043;-76
2022/02/16 05:15:11;;;;;;;16.30;10.52;;;;;;;2.88;100.00;99049.78;5101858;28;20047;-76
2022/02/16 05:17:56;;;;;;;18.25;10.77;;;;;;;2.95;100.00;99057.47;5116246;28;20035;-76
2022/02/16 05:20:59;;;;;;;16.70;10.25;;;;;;;2.87;100.00;99038.56;5116061;28;20349;-76
2022/02/16 05:23:44;;;;;;;19.95;11.13;;;;;;;2.89;100.00;99052.34;5101509;28;20059;-76
2022/02/16 05:26:32;;;;;;;19.48;11.82;;;;;;;2.89;100.00;99048.88;5115897;28;20036;-76
2022/02/16 05:29:18;;;;;;;21.02;11.30;;;;;;;2.84;100.00;99038.59;5116027;28;20063;-76
2022/02/16 05:32:11;;;;;;;17.57;11.53;;;;;;;2.83;100.00;99041.16;5115941;28;20075;-76
2022/02/16 05:34:55;;;;;;;20.92;10.68;;;;;;;2.83;100.00;99038.56;5115796;28;20131;-76
2022/02/16 05:37:40;;;;;;;17.80;10.52;;;;;;;2.83;100.00;99043.75;5115868;28;20097;-76
2022/02/16 05:40:25;;;;;;;19.00;10.38;;;;;;;2.79;100.00;99015.34;5115697;28;20039;-76
2022/02/16 05:43:13;;;;;;;19.73;11.25;;;;;;;2.80;100.00;99030.00;5115665;28;20050;-76
2022/02/16 05:45:58;;;;;;;19.08;11.10;;;;;;;2.87;100.00;99024.78;5115709;28;20043;-76
2022/02/16 05:48:42;;;;;;;21.20;11.57;;;;;;;2.77;100.00;99022.25;5115952;28;20421;-76
2022/02/16 05:51:27;;;;;;;20.10;10.80;;;;;;;2.85;100.00;99021.34;5115576;28;20471;-76
2022/02/16 05:54:12;;;;;;;20.55;9.98;;;;;;;2.67;100.00;99012.84;5115674;28;20082;-76
2022/02/16 05:56:56;;;;;;;16.15;9.93;;;;;;;2.69;100.00;99012.81;5116118;28;20047;-76
2022/02/16 05:59:41;;;;;;;23.15;12.55;;;;;;;2.71;100.00;99003.31;5113838;28;20051;-76
2022/02/16 06:02:26;;;;;;;24.02;16.33;;;;;;;2.84;100.00;99010.13;5114255;28;20039;-76
2022/02/16 06:05:11;;;;;;;19.42;10.30;;;;;;;2.83;100.00;99008.44;5113347;28;20040;-76
2022/02/16 06:07:56;;;;;;;18.10;10.27;;;;;;;2.85;100.00;98996.31;5113463;28;20047;-76
2022/02/16 06:10:41;;;;;;;57.90;26.38;;;;;;;2.79;100.00;98998.94;5099234;28;20039;-77
2022/02/16 06:13:26;;;;;;;34.95;18.25;;;;;;;2.79;100.00;98993.78;5113846;28;20128;-77
2022/02/16 06:16:12;;;;;;;62.47;36.17;;;;;;;2.76;100.00;98988.63;5100034;28;20645;-77
2022/02/16 06:18:56;;;;;;;61.03;33.00;;;;;;;2.75;100.00;99005.00;5100340;28;20032;-77
2022/02/16 06:21:42;;;;;;;50.17;25.35;;;;;;;2.82;100.00;98996.34;5098889;28;20073;-77
2022/02/16 06:24:27;;;;;;;34.38;17.10;;;;;;;2.79;100.00;98994.66;5098581;28;20044;-77
2022/02/16 06:27:12;;;;;;;45.28;20.98;;;;;;;2.91;100.00;98995.44;5098988;28;20042;-77
2022/02/16 06:29:58;;;;;;;23.23;12.82;;;;;;;2.84;100.00;98986.84;5099330;28;20040;-77
2022/02/16 06:33:01;;;;;;;;;;;;;;;2.83;100.00;98992.91;5115641;28;20445;-77
2022/02/16 06:35:45;;;;;;;12.85;6.57;;;;;;;2.88;100.00;98978.19;5115621;28;19919;-77
2022/02/16 06:38:30;;;;;;;12.57;8.15;;;;;;;2.91;100.00;98985.09;5115302;28;20101;-77
2022/02/16 06:41:18;;;;;;;11.32;6.75;;;;;;;2.89;100.00;98984.22;5115238;28;20048;-77
2022/02/16 06:44:02;;;;;;;15.65;6.57;;;;;;;3.04;100.00;98981.53;5115418;28;20040;-77
2022/02/16 06:46:47;;;;;;;9.73;6.53;;;;;;;3.18;100.00;98973.66;5100780;28;20043;-77
2022/02/16 06:49:33;;;;;;;10.13;6.50;;;;;;;3.37;100.00;98967.44;5118582;28;20375;-77
2022/02/16 06:52:20;;;;;;;10.57;5.85;;;;;;;3.56;100.00;98970.72;5104872;28;20085;-77
2022/02/16 06:55:05;;;;;;;9.40;5.60;;;;;;;3.64;100.00;98965.44;5118742;28;20044;-78
2022/02/16 06:57:50;;;;;;;11.70;5.72;;;;;;;3.90;100.00;98970.34;5089967;28;20048;-78
2022/02/16 07:00:36;;;;;;;10.82;7.57;;;;;;;4.10;100.00;98967.53;5118444;28;20040;-78
2022/02/16 07:03:22;;;;;;;9.63;6.50;;;;;;;4.32;100.00;98971.56;5118309;28;20047;-79
2022/02/16 07:06:16;;;;;;;10.68;6.50;;;;;;;4.63;100.00;98977.19;5118439;28;20047;-79
2022/02/16 07:09:01;;;;;;;12.45;6.75;;;;;;;4.77;100.00;98974.38;5119015;28;20035;-80
2022/02/16 07:11:47;;;;;;;14.25;7.60;;;;;;;5.08;100.00;98976.53;5118753;28;20043;-81
2022/02/16 07:14:31;;;;;;;13.23;7.40;;;;;;;5.28;100.00;98971.00;5104198;28;20043;-81
2022/02/16 07:17:16;;;;;;;20.00;9.18;;;;;;;5.55;100.00;98967.06;5104561;28;20039;-81
2022/02/16 07:20:01;;;;;;;15.07;8.60;;;;;;;6.13;100.00;98957.31;5118706;28;20044;-80
2022/02/16 07:22:52;;;;;;;10.38;5.63;;;;;;;6.35;100.00;98944.72;5118164;28;20111;-79
2022/02/16 07:25:36;;;;;;;12.88;5.75;;;;;;;6.57;100.00;98958.97;5104269;28;20059;-80
2022/02/16 07:28:21;;;;;;;9.95;4.93;;;;;;;6.86;100.00;98945.31;5118105;28;20350;-80
2022/02/16 07:31:06;;;;;;;7.80;4.38;;;;;;;7.18;100.00;98956.66;5118584;28;20051;-79
2022/02/16 07:33:52;;;;;;;7.97;4.28;;;;;;;7.43;100.00;98954.31;5117999;28;20411;-79
2022/02/16 07:36:36;;;;;;;10.20;5.97;;;;;;;7.57;100.00;98948.72;5117951;28;20382;-79
2022/02/16 07:39:27;;;;;;;8.85;4.28;;;;;;;7.83;100.00;98946.31;5103603;28;20354;-79
2022/02/16 07:42:11;;;;;;;8.80;4.55;;;;;;;7.92;100.00;98930.38;5117905;28;20066;-79
2022/02/16 07:45:11;;;;;;;7.53;4.47;;;;;;;7.91;100.00;98926.06;5105379;28;20088;-79
2022/02/16 07:47:56;;;;;;;8.80;5.05;;;;;;;8.04;100.00;98930.94;5118046;28;20039;-78
2022/02/16 07:50:41;;;;;;;8.00;4.53;;;;;;;8.48;100.00;98927.03;5103679;28;20050;-79
2022/02/16 07:53:44;;;;;;;6.80;4.10;;;;;;;8.37;100.00;98923.88;5118612;28;20040;-78
2022/02/16 07:56:33;;;;;;;7.40;4.68;;;;;;;8.31;100.00;98924.06;5118119;28;20036;-79
2022/02/16 07:59:20;;;;;;;4.40;3.13;;;;;;;8.60;100.00;98916.22;5116340;28;20040;-79
2022/02/16 08:02:05;;;;;;;11.07;3.75;;;;;;;8.69;100.00;98909.88;5118694;28;20051;-81
2022/02/16 08:04:50;;;;;;;11.90;5.55;;;;;;;8.45;100.00;98901.06;5102999;28;20384;-79
2022/02/16 08:07:36;;;;;;;12.15;6.38;;;;;;;8.51;100.00;98910.44;5103546;28;20040;-78
2022/02/16 08:10:21;;;;;;;9.63;4.47;;;;;;;8.33;100.00;98896.19;5117333;28;20384;-79
2022/02/16 08:13:06;;;;;;;7.30;4.85;;;;;;;8.24;100.00;98905.13;5117369;28;20051;-78
2022/02/16 08:16:21;;;;;;;8.00;4.82;;;;;;;8.36;100.00;98896.94;5117677;28;20039;-81
2022/02/16 08:19:17;;;;;;;5.93;4.10;;;;;;;8.55;100.00;98885.97;5102770;28;20126;-79
2022/02/16 08:22:02;;;;;;;5.97;3.35;;;;;;;8.59;100.00;98877.13;5102825;28;20044;-79
2022/02/16 08:24:48;;;;;;;6.28;4.07;;;;;;;8.40;100.00;98869.88;5117447;28;20096;-81
2022/02/16 08:27:53;;;;;;;21.90;15.45;;;;;;;8.62;100.00;98875.28;5117933;28;20039;-78
2022/02/16 08:30:40;;;;;;;9.50;8.00;;;;;;;8.83;100.00;98865.03;5103141;28;20043;-78
2022/02/16 08:33:29;;;;;;;7.68;4.50;;;;;;;8.92;100.00;98866.50;5103132;28;20299;-79
2022/02/16 08:36:22;;;;;;;6.93;3.85;;;;;;;9.01;100.00;98856.59;5102532;28;20059;-82
2022/02/16 08:39:06;;;;;;;7.57;4.00;;;;;;;9.03;100.00;98852.16;5098633;28;20036;-79
2022/02/16 08:41:52;;;;;;;8.68;4.38;;;;;;;9.21;100.00;98847.22;5067668;28;20048;-78
2022/02/16 08:44:36;;;;;;;7.93;5.03;;;;;;;9.28;100.00;98833.03;5095150;28;20043;-79
2022/02/16 08:47:21;;;;;;;8.15;4.00;;;;;;;9.60;100.00;98842.34;5095240;28;20056;-78
2022/02/16 08:50:06;;;;;;;7.13;3.60;;;;;;;9.75;100.00;98839.19;5096963;28;20077;-79
2022/02/16 08:52:50;;;;;;;6.82;3.30;;;;;;;9.73;98.67;98822.69;5096024;28;20052;-79
2022/02/16 08:55:34;;;;;;;6.13;3.95;;;;;;;9.84;100.00;98828.34;5097285;28;20162;-78
2022/02/16 08:58:21;;;;;;;6.40;3.40;;;;;;;9.90;99.53;98821.19;5081990;28;20426;-79
2022/02/16 09:01:06;;;;;;;9.13;5.75;;;;;;;10.12;100.00;98816.84;5095824;28;20044;-79
2022/02/16 09:03:50;;;;;;;5.65;3.53;;;;;;;10.24;99.64;98815.53;5081305;28;20040;-82
2022/02/16 09:06:35;;;;;;;14.48;7.38;;;;;;;10.35;99.77;98818.59;5081232;28;20349;-78
2022/02/16 09:09:19;;;;;;;9.18;6.05;;;;;;;10.22;82.81;98812.97;5093815;28;20050;-79
2022/02/16 09:12:05;;;;;;;8.63;6.20;;;;;;;10.31;81.66;98809.16;5094297;28;20047;-79
2022/02/16 09:14:50;;;;;;;19.13;10.85;;;;;;;10.35;82.86;98812.50;5093670;28;20044;-81
2022/02/16 09:17:34;;;;;;;64.45;30.52;;;;;;;10.44;81.60;98810.38;5079477;28;20047;-79
2022/02/16 09:20:19;;;;;;;11.75;6.15;;;;;;;10.43;81.57;98797.34;5093757;28;20047;-80
2022/02/16 09:23:04;;;;;;;9.55;4.88;;;;;;;10.48;80.73;98790.16;5095235;28;20052;-78
2022/02/16 09:25:48;;;;;;;25.38;12.73;;;;;;;10.53;81.69;98786.44;5096760;28;20090;-79
2022/02/16 09:28:34;;;;;;;18.00;9.90;;;;;;;10.60;80.72;98783.59;5081284;28;20043;-79
2022/02/16 09:31:19;;;;;;;10.48;5.70;;;;;;;10.49;81.16;98773.53;5096516;28;20043;-78
2022/02/16 09:34:03;;;;;;;10.98;6.25;;;;;;;10.58;80.74;98762.69;5081112;28;20052;-78
2022/02/16 09:36:47;;;;;;;4.78;3.28;;;;;;;10.58;78.70;98751.34;5095502;28;20054;-80
2022/02/16 09:39:32;;;;;;;6.07;4.00;;;;;;;10.57;80.01;98741.81;5095251;28;20090;-78
2022/02/16 09:42:17;;;;;;;5.65;3.60;;;;;;;10.53;79.66;98743.72;5096551;28;20043;-77
2022/02/16 09:45:06;;;;;;;5.10;3.13;;;;;;;10.66;79.33;98736.16;5095608;28;20423;-78
2022/02/16 09:47:50;;;;;;;9.35;5.03;;;;;;;10.72;80.67;98730.66;5095187;28;20331;-77
2022/02/16 09:50:34;;;;;;;6.53;4.72;;;;;;;10.86;78.62;98737.97;5096033;28;20346;-77
2022/02/16 09:53:19;;;;;;;13.30;9.23;;;;;;;10.97;78.76;98739.19;5096212;28;20109;-78
2022/02/16 09:56:04;;;;;;;5.50;3.47;;;;;;;10.97;77.52;98726.06;5095667;28;20036;-79
2022/02/16 09:58:49;;;;;;;8.70;5.95;;;;;;;10.89;79.56;98714.25;5095063;28;20040;-79
2022/02/16 10:01:52;;;;;;;7.93;4.18;;;;;;;10.77;79.16;98708.59;5094972;28;20119;-78
2022/02/16 10:04:37;;;;;;;;;;;;;;;10.80;79.08;98702.41;5096077;28;20036;-80
2022/02/16 10:07:27;;;;;;;6.63;2.92;;;;;;;10.74;79.20;98698.25;5094975;28;19920;-79
2022/02/16 10:10:19;;;;;;;5.70;2.47;;;;;;;10.81;78.23;98692.75;5095932;28;20033;-78
2022/02/16 10:13:18;;;;;;;3.78;1.90;;;;;;;10.78;77.69;98672.78;5095910;28;20044;-78
2022/02/16 10:16:04;;;;;;;4.40;1.90;;;;;;;10.86;78.85;98675.94;5094954;28;20040;-78
2022/02/16 10:19:02;;;;;;;3.55;1.67;;;;;;;11.11;79.00;98659.94;5095754;28;20043;-78
2022/02/16 10:22:01;;;;;;;4.35;1.75;;;;;;;11.28;77.80;98651.34;5095043;28;20439;-79
2022/02/16 10:24:47;;;;;;;11.25;2.70;;;;;;;11.44;79.10;98649.72;5099770;28;20453;-77
2022/02/16 10:27:31;;;;;;;3.65;1.75;;;;;;;11.62;78.18;98636.63;5099276;28;20040;-78
2022/02/16 10:30:16;;;;;;;4.00;1.77;;;;;;;11.84;76.58;98634.72;5099287;28;20091;-77
2022/02/16 10:33:28;;;;;;;3.47;1.90;;;;;;;11.67;75.22;98624.16;5099319;28;20043;-79
2022/02/16 10:36:14;;;;;;;4.63;2.38;;;;;;;11.76;75.78;98621.06;5099406;28;20051;-80
2022/02/16 10:39:00;;;;;;;5.80;2.28;;;;;;;11.81;75.74;98619.09;5098391;28;20051;-79
2022/02/16 10:41:48;;;;;;;4.35;1.60;;;;;;;11.93;75.84;98580.94;5099264;28;20036;-79
2022/02/16 10:44:35;;;;;;;4.63;2.13;;;;;;;12.19;74.32;98597.13;5105184;28;20039;-79
2022/02/16 10:47:19;;;;;;;5.65;2.58;;;;;;;12.06;75.70;98575.94;5103631;28;20040;-79
2022/02/16 10:50:12;;;;;;;3.95;1.67;;;;;;;12.11;72.83;98592.28;5116828;28;20058;-79
2022/02/16 10:53:06;;;;;;;;;;;;;;;11.95;74.31;98596.59;5118078;28;20367;-78
2022/02/16 10:55:51;;;;;;;2.13;0.98;;;;;;;12.04;75.32;98585.66;5102541;28;20411;-77
2022/02/16 10:58:36;;;;;;;6.18;2.05;;;;;;;12.05;74.00;98582.09;5116932;28;20040;-79
2022/02/16 11:01:21;;;;;;;3.97;2.10;;;;;;;12.04;76.31;98575.16;5116817;28;20043;-78
2022/02/16 11:04:08;;;;;;;2.58;1.30;;;;;;;12.16;74.78;98585.03;5117856;28;20379;-77
2022/02/16 11:06:55;;;;;;;5.40;1.58;;;;;;;12.23;75.43;98575.91;5103543;28;20040;-77
2022/02/16 11:09:43;;;;;;;2.95;1.27;;;;;;;12.44;76.00;98573.94;5119131;28;20050;-77
2022/02/16 11:12:28;;;;;;;2.78;1.50;;;;;;;12.67;74.18;98554.34;5119397;28;20047;-75
2022/02/16 11:15:14;;;;;;;4.43;2.15;;;;;;;12.58;72.89;98558.34;5119337;28;20067;-79
2022/02/16 11:18:23;;;;;;;5.13;2.80;;;;;;;12.63;73.56;98560.69;5118970;28;20035;-82
2022/02/16 11:21:14;;;;;;;3.17;1.10;;;;;;;12.69;74.00;98562.16;5103842;28;20051;-78
2022/02/16 11:23:59;;;;;;;5.18;1.33;;;;;;;12.58;73.53;98541.72;5119046;28;20105;-78
2022/02/16 11:26:48;;;;;;;6.72;1.15;;;;;;;12.34;71.66;98556.97;5118951;28;20382;-80
2022/02/16 11:29:37;;;;;;;1.67;0.80;;;;;;;11.99;72.48;98533.41;5119315;28;20043;-77
2022/02/16 11:32:30;;;;;;;2.35;0.90;;;;;;;11.96;72.85;98549.31;5103706;28;20032;-77
2022/02/16 11:35:24;;;;;;;2.78;0.73;;;;;;;11.72;73.41;98540.84;5118298;28;20047;-77
2022/02/16 11:38:13;;;;;;;1.95;1.15;;;;;;;11.62;74.95;98529.97;5118715;28;20131;-78
2022/02/16 11:41:00;;;;;;;4.05;0.98;;;;;;;11.56;76.24;98526.78;5103549;28;20054;-77
2022/02/16 11:44:00;;;;;;;3.67;1.08;;;;;;;11.64;77.61;98520.25;5118209;28;20042;-77
2022/02/16 11:46:48;;;;;;;3.22;1.25;;;;;;;11.74;77.82;98527.66;5117730;28;20036;-77
2022/02/16 11:49:36;;;;;;;1.95;1.15;;;;;;;11.63;74.89;98518.56;5118546;28;20039;-76
2022/02/16 11:52:35;;;;;;;2.53;1.02;;;;;;;11.43;76.06;98501.16;5103796;28;20036;-77
2022/02/16 11:55:37;;;;;;;4.43;1.80;;;;;;;11.38;76.45;98503.19;5117598;28;20360;-80
2022/02/16 11:58:22;;;;;;;1.77;0.95;;;;;;;11.19;75.79;98494.50;5117466;28;20323;-77
2022/02/16 12:01:15;;;;;;;4.72;1.88;;;;;;;11.10;77.19;98489.72;5103443;28;20064;-77
2022/02/16 12:04:01;;;;;;;2.75;1.23;;;;;;;11.09;76.02;98495.88;5117519;28;20077;-80
2022/02/16 12:06:46;;;;;;;2.22;0.82;;;;;;;10.85;76.96;98475.16;5117941;28;20043;-79
2022/02/16 12:09:33;;;;;;;8.60;5.35;;;;;;;10.88;76.13;98474.16;5117968;28;20341;-78
2022/02/16 12:12:18;;;;;;;5.65;3.83;;;;;;;10.98;75.46;98462.31;5103004;28;20373;-78
2022/02/16 12:15:04;;;;;;;4.25;3.28;;;;;;;10.90;76.60;98438.28;5118019;28;20539;-79
2022/02/16 12:17:48;;;;;;;4.65;2.15;;;;;;;10.89;76.47;98442.66;5117335;28;20126;-80
2022/02/16 12:20:33;;;;;;;5.20;4.30;;;;;;;10.93;77.62;98443.38;5117511;28;20036;-80
2022/02/16 12:23:17;;;;;;;4.30;2.53;;;;;;;10.97;76.44;98416.94;5117156;28;20047;-79
2022/02/16 12:26:08;;;;;;;5.45;2.20;;;;;;;10.93;75.48;98397.06;5118585;28;20044;-79
2022/02/16 12:28:57;;;;;;;10.35;3.67;;;;;;;10.97;76.62;98395.97;5118491;28;20040;-80
2022/02/16 12:31:44;;;;;;;10.95;8.63;;;;;;;11.05;75.94;98386.88;5117822;28;20031;-79
2022/02/16 12:34:33;;;;;;;11.38;5.72;;;;;;;11.04;77.30;98379.97;5117456;28;20059;-79
2022/02/16 12:37:20;;;;;;;3.60;2.10;;;;;;;10.91;76.47;98366.63;5102427;28;20431;-77
2022/02/16 12:40:11;;;;;;;5.47;1.98;;;;;;;10.86;76.90;98368.63;5117906;28;20110;-79
2022/02/16 12:42:56;;;;;;;6.25;3.72;;;;;;;10.96;76.39;98360.22;5117308;28;20039;-78
2022/02/16 12:45:40;;;;;;;22.63;12.23;;;;;;;10.92;77.27;98340.38;5116195;28;20043;-77
2022/02/16 12:48:25;;;;;;;4.28;2.90;;;;;;;10.91;76.91;98343.03;5102500;28;20039;-79
2022/02/16 12:51:12;;;;;;;6.53;2.50;;;;;;;10.88;78.26;98328.31;5117002;28;20043;-79
2022/02/16 12:54:03;;;;;;;3.85;2.42;;;;;;;11.06;77.87;98328.34;5117697;28;20104;-79
2022/02/16 12:57:00;;;;;;;16.70;12.15;;;;;;;11.00;77.61;98313.78;5116775;28;20067;-78